sensor_id;sensor_type;location;lat;lon;timestamp;P1;durP1;ratioP1;P2;durP2;ratioP2
5117;SDS011;2578;51.622;7.046;2022-08-02T00:00:18;7.80;;;1.50;;
5117;SDS011;2578;51.622;7.046;2022-08-02T00:02:44;7.87;;;1.50;;
5117;SDS011;2578;51.622;7.046;2022-08-02T00:05:11;7.93;;;1.50;;
5117;SDS011;2578;51.622;7.046;2022-08-02T00:07:37;7.97;;;1.60;;
5117;SDS011;2578;51.622;7.046;2022-08-02T00:10:04;8.03;;;1.60;;
5117;SDS011;2578;51.622;7.046;2022-08-02T00:12:31;7.95;;;1.80;;
5117;SDS011;2578;51.622;7.046;2022-08-02T00:14:57;8.10;;;1.80;;
5117;SDS011;2578;51.622;7.046;2022-08-02T00:17:22;8.03;;;1.70;;
5117;SDS011;2578;51.622;7.046;2022-08-02T00:19:48;8.05;;;1.90;;
5117;SDS011;2578;51.622;7.046;2022-08-02T00:22:14;7.97;;;1.90;;
5117;SDS011;2578;51.622;7.046;2022-08-02T00:24:39;8.10;;;1.90;;
5117;SDS011;2578;51.622;7.046;2022-08-02T00:27:05;8.03;;;1.80;;
5117;SDS011;2578;51.622;7.046;2022-08-02T00:29:32;8.10;;;1.70;;
5117;SDS011;2578;51.622;7.046;2022-08-02T00:31:59;8.20;;;1.70;;
5117;SDS011;2578;51.622;7.046;2022-08-02T00:34:25;8.27;;;2.00;;
5117;SDS011;2578;51.622;7.046;2022-08-02T00:36:50;8.35;;;2.15;;
5117;SDS011;2578;51.622;7.046;2022-08-02T00:39:16;8.10;;;2.00;;
5117;SDS011;2578;51.622;7.046;2022-08-02T00:41:45;8.05;;;2.10;;
5117;SDS011;2578;51.622;7.046;2022-08-02T00:44:13;7.97;;;1.80;;
5117;SDS011;2578;51.622;7.046;2022-08-02T00:46:40;8.17;;;1.80;;
5117;SDS011;2578;51.622;7.046;2022-08-02T00:49:05;8.23;;;1.90;;
5117;SDS011;2578;51.622;7.046;2022-08-02T00:51:31;8.25;;;1.90;;
5117;SDS011;2578;51.622;7.046;2022-08-02T00:53:56;8.23;;;1.80;;
5117;SDS011;2578;51.622;7.046;2022-08-02T00:56:22;8.33;;;1.90;;
5117;SDS011;2578;51.622;7.046;2022-08-02T00:58:48;8.43;;;1.90;;
5117;SDS011;2578;51.622;7.046;2022-08-02T01:01:13;8.60;;;1.93;;
5117;SDS011;2578;51.622;7.046;2022-08-02T01:03:39;8.57;;;1.90;;
5117;SDS011;2578;51.622;7.046;2022-08-02T01:06:05;8.60;;;2.00;;
5117;SDS011;2578;51.622;7.046;2022-08-02T01:08:31;8.57;;;2.00;;
5117;SDS011;2578;51.622;7.046;2022-08-02T01:10:57;8.53;;;2.00;;
5117;SDS011;2578;51.622;7.046;2022-08-02T01:13:23;8.65;;;2.10;;
5117;SDS011;2578;51.622;7.046;2022-08-02T01:15:54;8.57;;;2.07;;
5117;SDS011;2578;51.622;7.046;2022-08-02T01:18:37;8.57;;;2.28;;
5117;SDS011;2578;51.622;7.046;2022-08-02T01:21:39;8.57;;;2.10;;
5117;SDS011;2578;51.622;7.046;2022-08-02T01:27:25;9.00;;;2.67;;
5117;SDS011;2578;51.622;7.046;2022-08-02T01:29:55;8.67;;;2.00;;
5117;SDS011;2578;51.622;7.046;2022-08-02T01:32:25;8.63;;;2.00;;
5117;SDS011;2578;51.622;7.046;2022-08-02T01:34:59;8.63;;;1.90;;
5117;SDS011;2578;51.622;7.046;2022-08-02T01:37:31;8.57;;;1.90;;
5117;SDS011;2578;51.622;7.046;2022-08-02T01:40:04;8.60;;;2.00;;
5117;SDS011;2578;51.622;7.046;2022-08-02T01:42:33;8.65;;;2.10;;
5117;SDS011;2578;51.622;7.046;2022-08-02T01:45:01;8.73;;;2.30;;
5117;SDS011;2578;51.622;7.046;2022-08-02T01:47:29;8.70;;;2.20;;
5117;SDS011;2578;51.622;7.046;2022-08-02T01:49:59;8.73;;;2.00;;
5117;SDS011;2578;51.622;7.046;2022-08-02T01:52:27;8.77;;;2.00;;
5117;SDS011;2578;51.622;7.046;2022-08-02T01:57:26;8.75;;;2.17;;
5117;SDS011;2578;51.622;7.046;2022-08-02T01:59:55;8.80;;;2.27;;
5117;SDS011;2578;51.622;7.046;2022-08-02T02:02:24;8.87;;;2.20;;
5117;SDS011;2578;51.622;7.046;2022-08-02T02:04:52;8.90;;;2.20;;
5117;SDS011;2578;51.622;7.046;2022-08-02T02:07:19;8.87;;;2.10;;
5117;SDS011;2578;51.622;7.046;2022-08-02T02:09:46;9.00;;;2.40;;
5117;SDS011;2578;51.622;7.046;2022-08-02T02:12:14;8.80;;;2.20;;
5117;SDS011;2578;51.622;7.046;2022-08-02T02:14:41;8.90;;;2.20;;
5117;SDS011;2578;51.622;7.046;2022-08-02T02:17:08;8.83;;;2.20;;
5117;SDS011;2578;51.622;7.046;2022-08-02T02:19:35;8.93;;;2.23;;
5117;SDS011;2578;51.622;7.046;2022-08-02T02:22:02;8.90;;;2.20;;
5117;SDS011;2578;51.622;7.046;2022-08-02T02:24:29;8.93;;;2.30;;
5117;SDS011;2578;51.622;7.046;2022-08-02T02:26:55;8.93;;;2.20;;
5117;SDS011;2578;51.622;7.046;2022-08-02T02:29:24;9.07;;;2.60;;
5117;SDS011;2578;51.622;7.046;2022-08-02T02:31:53;9.03;;;2.57;;
5117;SDS011;2578;51.622;7.046;2022-08-02T02:34:27;8.97;;;2.50;;
5117;SDS011;2578;51.622;7.046;2022-08-02T02:36:59;9.00;;;2.47;;
5117;SDS011;2578;51.622;7.046;2022-08-02T02:39:27;9.03;;;2.50;;
5117;SDS011;2578;51.622;7.046;2022-08-02T02:41:55;8.97;;;2.50;;
5117;SDS011;2578;51.622;7.046;2022-08-02T02:44:25;9.03;;;2.70;;
5117;SDS011;2578;51.622;7.046;2022-08-02T02:46:52;9.00;;;2.40;;
5117;SDS011;2578;51.622;7.046;2022-08-02T02:49:19;8.90;;;2.30;;
5117;SDS011;2578;51.622;7.046;2022-08-02T02:51:45;8.87;;;2.20;;
5117;SDS011;2578;51.622;7.046;2022-08-02T02:54:12;8.90;;;2.30;;
5117;SDS011;2578;51.622;7.046;2022-08-02T02:56:39;8.87;;;2.20;;
5117;SDS011;2578;51.622;7.046;2022-08-02T02:59:07;8.97;;;2.30;;
5117;SDS011;2578;51.622;7.046;2022-08-02T03:01:34;9.00;;;2.40;;
5117;SDS011;2578;51.622;7.046;2022-08-02T03:04:04;9.03;;;2.60;;
5117;SDS011;2578;51.622;7.046;2022-08-02T03:06:32;8.97;;;2.33;;
5117;SDS011;2578;51.622;7.046;2022-08-02T03:08:59;8.97;;;2.30;;
5117;SDS011;2578;51.622;7.046;2022-08-02T03:11:25;8.90;;;2.20;;
5117;SDS011;2578;51.622;7.046;2022-08-02T03:13:56;8.93;;;2.40;;
5117;SDS011;2578;51.622;7.046;2022-08-02T03:16:26;8.90;;;2.40;;
5117;SDS011;2578;51.622;7.046;2022-08-02T03:18:52;8.93;;;2.50;;
5117;SDS011;2578;51.622;7.046;2022-08-02T03:21:19;9.05;;;2.80;;
5117;SDS011;2578;51.622;7.046;2022-08-02T03:23:46;9.10;;;2.80;;
5117;SDS011;2578;51.622;7.046;2022-08-02T03:26:11;8.97;;;2.70;;
5117;SDS011;2578;51.622;7.046;2022-08-02T03:28:38;9.13;;;2.80;;
5117;SDS011;2578;51.622;7.046;2022-08-02T03:31:04;8.97;;;2.80;;
5117;SDS011;2578;51.622;7.046;2022-08-02T03:33:30;9.03;;;2.70;;
5117;SDS011;2578;51.622;7.046;2022-08-02T03:36:03;9.10;;;3.00;;
5117;SDS011;2578;51.622;7.046;2022-08-02T03:38:32;9.10;;;2.90;;
5117;SDS011;2578;51.622;7.046;2022-08-02T03:41:01;9.03;;;2.80;;
5117;SDS011;2578;51.622;7.046;2022-08-02T03:43:28;9.03;;;2.80;;
5117;SDS011;2578;51.622;7.046;2022-08-02T03:45:54;8.93;;;2.80;;
5117;SDS011;2578;51.622;7.046;2022-08-02T03:48:20;9.10;;;3.00;;
5117;SDS011;2578;51.622;7.046;2022-08-02T03:50:47;9.10;;;3.00;;
5117;SDS011;2578;51.622;7.046;2022-08-02T03:53:13;9.15;;;3.10;;
5117;SDS011;2578;51.622;7.046;2022-08-02T03:55:40;9.10;;;3.20;;
5117;SDS011;2578;51.622;7.046;2022-08-02T03:58:06;9.10;;;3.00;;
5117;SDS011;2578;51.622;7.046;2022-08-02T04:00:32;9.10;;;2.90;;
5117;SDS011;2578;51.622;7.046;2022-08-02T04:02:58;9.10;;;2.80;;
5117;SDS011;2578;51.622;7.046;2022-08-02T04:05:24;9.03;;;2.80;;
5117;SDS011;2578;51.622;7.046;2022-08-02T04:07:49;9.07;;;2.80;;
5117;SDS011;2578;51.622;7.046;2022-08-02T04:10:15;8.97;;;2.73;;
5117;SDS011;2578;51.622;7.046;2022-08-02T04:12:41;8.95;;;2.90;;
5117;SDS011;2578;51.622;7.046;2022-08-02T04:15:08;9.00;;;2.97;;
5117;SDS011;2578;51.622;7.046;2022-08-02T04:17:39;9.07;;;2.90;;
5117;SDS011;2578;51.622;7.046;2022-08-02T04:20:20;8.80;;;2.20;;
5117;SDS011;2578;51.622;7.046;2022-08-02T04:22:50;8.73;;;2.23;;
5117;SDS011;2578;51.622;7.046;2022-08-02T04:25:28;8.70;;;2.20;;
5117;SDS011;2578;51.622;7.046;2022-08-02T04:27:56;8.80;;;2.30;;
5117;SDS011;2578;51.622;7.046;2022-08-02T04:30:24;8.67;;;2.10;;
5117;SDS011;2578;51.622;7.046;2022-08-02T04:32:50;8.87;;;2.30;;
5117;SDS011;2578;51.622;7.046;2022-08-02T04:35:16;8.83;;;2.27;;
5117;SDS011;2578;51.622;7.046;2022-08-02T04:37:42;8.80;;;2.20;;
5117;SDS011;2578;51.622;7.046;2022-08-02T04:40:09;9.00;;;2.60;;
5117;SDS011;2578;51.622;7.046;2022-08-02T04:42:36;8.83;;;2.50;;
5117;SDS011;2578;51.622;7.046;2022-08-02T04:45:03;8.83;;;2.60;;
5117;SDS011;2578;51.622;7.046;2022-08-02T04:47:32;8.67;;;2.20;;
5117;SDS011;2578;51.622;7.046;2022-08-02T04:49:58;8.77;;;2.20;;
5117;SDS011;2578;51.622;7.046;2022-08-02T04:52:24;8.67;;;2.20;;
5117;SDS011;2578;51.622;7.046;2022-08-02T04:54:49;8.63;;;2.10;;
5117;SDS011;2578;51.622;7.046;2022-08-02T04:57:17;8.95;;;2.47;;
5117;SDS011;2578;51.622;7.046;2022-08-02T05:00:03;8.70;;;2.00;;
5117;SDS011;2578;51.622;7.046;2022-08-02T05:02:30;8.80;;;2.20;;
5117;SDS011;2578;51.622;7.046;2022-08-02T05:04:55;8.77;;;2.20;;
5117;SDS011;2578;51.622;7.046;2022-08-02T05:07:21;8.88;;;2.40;;
5117;SDS011;2578;51.622;7.046;2022-08-02T05:09:46;8.93;;;2.38;;
5117;SDS011;2578;51.622;7.046;2022-08-02T05:12:12;8.77;;;2.20;;
5117;SDS011;2578;51.622;7.046;2022-08-02T05:14:38;8.83;;;2.23;;
5117;SDS011;2578;51.622;7.046;2022-08-02T05:17:03;9.00;;;2.40;;
5117;SDS011;2578;51.622;7.046;2022-08-02T05:21:54;8.87;;;2.00;;
5117;SDS011;2578;51.622;7.046;2022-08-02T05:24:20;8.77;;;1.90;;
5117;SDS011;2578;51.622;7.046;2022-08-02T05:26:46;8.63;;;1.90;;
5117;SDS011;2578;51.622;7.046;2022-08-02T05:29:11;8.80;;;1.80;;
5117;SDS011;2578;51.622;7.046;2022-08-02T05:31:37;8.73;;;1.80;;
5117;SDS011;2578;51.622;7.046;2022-08-02T05:34:02;8.88;;;1.90;;
5117;SDS011;2578;51.622;7.046;2022-08-02T05:36:28;8.73;;;1.70;;
5117;SDS011;2578;51.622;7.046;2022-08-02T05:38:54;8.73;;;1.90;;
5117;SDS011;2578;51.622;7.046;2022-08-02T05:41:19;8.47;;;1.73;;
5117;SDS011;2578;51.622;7.046;2022-08-02T05:43:45;8.68;;;1.70;;
5117;SDS011;2578;51.622;7.046;2022-08-02T05:46:11;8.67;;;1.20;;
5117;SDS011;2578;51.622;7.046;2022-08-02T05:48:37;8.53;;;1.10;;
5117;SDS011;2578;51.622;7.046;2022-08-02T05:51:09;8.90;;;1.73;;
5117;SDS011;2578;51.622;7.046;2022-08-02T05:53:38;8.30;;;1.00;;
5117;SDS011;2578;51.622;7.046;2022-08-02T05:59:03;8.20;;;1.10;;
5117;SDS011;2578;51.622;7.046;2022-08-02T06:01:39;8.30;;;1.17;;
5117;SDS011;2578;51.622;7.046;2022-08-02T06:04:08;8.13;;;1.30;;
5117;SDS011;2578;51.622;7.046;2022-08-02T06:06:38;7.78;;;1.50;;
5117;SDS011;2578;51.622;7.046;2022-08-02T06:09:09;7.93;;;1.50;;
5117;SDS011;2578;51.622;7.046;2022-08-02T06:11:46;8.33;;;1.80;;
5117;SDS011;2578;51.622;7.046;2022-08-02T06:14:17;9.87;;;2.70;;
5117;SDS011;2578;51.622;7.046;2022-08-02T06:16:43;8.40;;;2.20;;
5117;SDS011;2578;51.622;7.046;2022-08-02T06:19:13;8.10;;;1.90;;
5117;SDS011;2578;51.622;7.046;2022-08-02T06:21:41;8.03;;;2.10;;
5117;SDS011;2578;51.622;7.046;2022-08-02T06:24:08;8.00;;;2.53;;
5117;SDS011;2578;51.622;7.046;2022-08-02T06:26:35;7.60;;;2.60;;
5117;SDS011;2578;51.622;7.046;2022-08-02T06:29:02;8.10;;;2.80;;
5117;SDS011;2578;51.622;7.046;2022-08-02T06:31:28;8.10;;;2.90;;
5117;SDS011;2578;51.622;7.046;2022-08-02T06:33:54;7.73;;;3.20;;
5117;SDS011;2578;51.622;7.046;2022-08-02T06:36:31;7.85;;;3.33;;
5117;SDS011;2578;51.622;7.046;2022-08-02T06:39:19;7.50;;;3.27;;
5117;SDS011;2578;51.622;7.046;2022-08-02T06:41:49;7.53;;;3.60;;
5117;SDS011;2578;51.622;7.046;2022-08-02T06:44:17;8.60;;;5.00;;
5117;SDS011;2578;51.622;7.046;2022-08-02T06:46:43;8.23;;;5.60;;
5117;SDS011;2578;51.622;7.046;2022-08-02T06:49:09;8.23;;;5.67;;
5117;SDS011;2578;51.622;7.046;2022-08-02T06:51:34;8.50;;;6.10;;
5117;SDS011;2578;51.622;7.046;2022-08-02T06:54:00;8.83;;;7.37;;
5117;SDS011;2578;51.622;7.046;2022-08-02T06:56:26;9.10;;;8.10;;
5117;SDS011;2578;51.622;7.046;2022-08-02T06:58:51;10.30;;;9.23;;
5117;SDS011;2578;51.622;7.046;2022-08-02T07:01:17;9.93;;;8.93;;
5117;SDS011;2578;51.622;7.046;2022-08-02T07:03:43;18.13;;;11.83;;
5117;SDS011;2578;51.622;7.046;2022-08-02T07:06:09;11.00;;;9.90;;
5117;SDS011;2578;51.622;7.046;2022-08-02T07:08:36;13.55;;;12.15;;
5117;SDS011;2578;51.622;7.046;2022-08-02T07:11:03;12.77;;;11.57;;
5117;SDS011;2578;51.622;7.046;2022-08-02T07:13:29;13.10;;;11.90;;
5117;SDS011;2578;51.622;7.046;2022-08-02T07:15:55;12.87;;;11.70;;
5117;SDS011;2578;51.622;7.046;2022-08-02T07:18:21;12.10;;;11.00;;
5117;SDS011;2578;51.622;7.046;2022-08-02T07:20:48;14.80;;;13.50;;
5117;SDS011;2578;51.622;7.046;2022-08-02T07:23:14;16.50;;;15.10;;
5117;SDS011;2578;51.622;7.046;2022-08-02T07:25:40;16.93;;;15.50;;
5117;SDS011;2578;51.622;7.046;2022-08-02T07:28:09;17.20;;;15.70;;
5117;SDS011;2578;51.622;7.046;2022-08-02T07:30:35;18.40;;;16.80;;
5117;SDS011;2578;51.622;7.046;2022-08-02T07:33:01;20.07;;;18.37;;
5117;SDS011;2578;51.622;7.046;2022-08-02T07:35:27;18.00;;;16.40;;
5117;SDS011;2578;51.622;7.046;2022-08-02T07:37:53;17.70;;;16.10;;
5117;SDS011;2578;51.622;7.046;2022-08-02T07:40:19;18.00;;;16.40;;
5117;SDS011;2578;51.622;7.046;2022-08-02T07:42:45;18.10;;;16.50;;
5117;SDS011;2578;51.622;7.046;2022-08-02T07:45:16;19.40;;;17.70;;
5117;SDS011;2578;51.622;7.046;2022-08-02T07:47:43;18.60;;;16.90;;
5117;SDS011;2578;51.622;7.046;2022-08-02T07:50:09;19.65;;;17.88;;
5117;SDS011;2578;51.622;7.046;2022-08-02T07:52:36;20.33;;;18.53;;
5117;SDS011;2578;51.622;7.046;2022-08-02T07:55:03;20.50;;;18.60;;
5117;SDS011;2578;51.622;7.046;2022-08-02T07:57:29;21.20;;;19.20;;
5117;SDS011;2578;51.622;7.046;2022-08-02T07:59:55;20.80;;;18.90;;
5117;SDS011;2578;51.622;7.046;2022-08-02T08:02:20;22.10;;;20.10;;
5117;SDS011;2578;51.622;7.046;2022-08-02T08:04:48;20.10;;;18.30;;
5117;SDS011;2578;51.622;7.046;2022-08-02T08:07:14;22.40;;;20.40;;
5117;SDS011;2578;51.622;7.046;2022-08-02T08:09:39;21.40;;;19.40;;
5117;SDS011;2578;51.622;7.046;2022-08-02T08:12:09;22.40;;;20.30;;
5117;SDS011;2578;51.622;7.046;2022-08-02T08:14:36;22.40;;;20.13;;
5117;SDS011;2578;51.622;7.046;2022-08-02T08:17:03;22.03;;;19.93;;
5117;SDS011;2578;51.622;7.046;2022-08-02T08:19:29;22.50;;;20.40;;
5117;SDS011;2578;51.622;7.046;2022-08-02T08:21:55;22.70;;;20.60;;
5117;SDS011;2578;51.622;7.046;2022-08-02T08:24:20;23.57;;;21.27;;
5117;SDS011;2578;51.622;7.046;2022-08-02T08:26:46;23.70;;;21.50;;
5117;SDS011;2578;51.622;7.046;2022-08-02T08:29:11;23.50;;;21.27;;
5117;SDS011;2578;51.622;7.046;2022-08-02T08:31:37;23.83;;;21.63;;
5117;SDS011;2578;51.622;7.046;2022-08-02T08:34:03;23.40;;;21.20;;
5117;SDS011;2578;51.622;7.046;2022-08-02T08:36:28;23.02;;;20.83;;
5117;SDS011;2578;51.622;7.046;2022-08-02T08:38:55;24.40;;;22.10;;
5117;SDS011;2578;51.622;7.046;2022-08-02T08:41:20;25.70;;;23.30;;
5117;SDS011;2578;51.622;7.046;2022-08-02T08:43:46;25.07;;;22.67;;
5117;SDS011;2578;51.622;7.046;2022-08-02T08:46:25;24.50;;;22.17;;
5117;SDS011;2578;51.622;7.046;2022-08-02T08:48:59;25.77;;;23.37;;
5117;SDS011;2578;51.622;7.046;2022-08-02T08:51:29;26.23;;;23.73;;
5117;SDS011;2578;51.622;7.046;2022-08-02T08:54:01;25.30;;;22.90;;
5117;SDS011;2578;51.622;7.046;2022-08-02T08:56:28;25.57;;;23.17;;
5117;SDS011;2578;51.622;7.046;2022-08-02T08:58:57;26.77;;;24.38;;
5117;SDS011;2578;51.622;7.046;2022-08-02T09:01:24;28.67;;;26.17;;
5117;SDS011;2578;51.622;7.046;2022-08-02T09:03:49;27.57;;;25.07;;
5117;SDS011;2578;51.622;7.046;2022-08-02T09:06:15;25.27;;;22.97;;
5117;SDS011;2578;51.622;7.046;2022-08-02T09:08:41;25.57;;;23.17;;
5117;SDS011;2578;51.622;7.046;2022-08-02T09:11:17;26.57;;;24.13;;
5117;SDS011;2578;51.622;7.046;2022-08-02T09:13:54;27.63;;;25.13;;
5117;SDS011;2578;51.622;7.046;2022-08-02T09:19:16;26.42;;;24.02;;
5117;SDS011;2578;51.622;7.046;2022-08-02T09:22:10;26.65;;;24.25;;
5117;SDS011;2578;51.622;7.046;2022-08-02T09:27:16;25.10;;;22.80;;
5117;SDS011;2578;51.622;7.046;2022-08-02T09:29:46;26.50;;;24.10;;
5117;SDS011;2578;51.622;7.046;2022-08-02T09:32:13;25.00;;;22.70;;
5117;SDS011;2578;51.622;7.046;2022-08-02T09:34:52;25.00;;;22.70;;
5117;SDS011;2578;51.622;7.046;2022-08-02T09:37:25;25.33;;;23.03;;
5117;SDS011;2578;51.622;7.046;2022-08-02T09:39:52;24.90;;;22.60;;
5117;SDS011;2578;51.622;7.046;2022-08-02T09:42:18;24.80;;;22.60;;
5117;SDS011;2578;51.622;7.046;2022-08-02T09:47:20;24.23;;;22.03;;
5117;SDS011;2578;51.622;7.046;2022-08-02T09:49:47;24.50;;;22.30;;
5117;SDS011;2578;51.622;7.046;2022-08-02T09:52:13;23.70;;;21.60;;
5117;SDS011;2578;51.622;7.046;2022-08-02T09:54:39;23.80;;;21.70;;
5117;SDS011;2578;51.622;7.046;2022-08-02T09:57:06;23.90;;;21.80;;
5117;SDS011;2578;51.622;7.046;2022-08-02T09:59:32;23.53;;;21.43;;
5117;SDS011;2578;51.622;7.046;2022-08-02T10:01:58;26.70;;;24.50;;
5117;SDS011;2578;51.622;7.046;2022-08-02T10:04:26;24.40;;;22.20;;
5117;SDS011;2578;51.622;7.046;2022-08-02T10:06:54;23.07;;;20.97;;
5117;SDS011;2578;51.622;7.046;2022-08-02T10:09:20;24.13;;;21.93;;
5117;SDS011;2578;51.622;7.046;2022-08-02T10:11:47;23.87;;;21.77;;
5117;SDS011;2578;51.622;7.046;2022-08-02T10:14:13;24.17;;;21.97;;
5117;SDS011;2578;51.622;7.046;2022-08-02T10:16:40;23.23;;;21.13;;
5117;SDS011;2578;51.622;7.046;2022-08-02T10:19:07;24.80;;;22.60;;
5117;SDS011;2578;51.622;7.046;2022-08-02T10:24:12;23.97;;;21.77;;
5117;SDS011;2578;51.622;7.046;2022-08-02T10:26:44;40.93;;;37.40;;
5117;SDS011;2578;51.622;7.046;2022-08-02T10:29:14;24.33;;;22.23;;
5117;SDS011;2578;51.622;7.046;2022-08-02T10:31:56;24.60;;;22.50;;
5117;SDS011;2578;51.622;7.046;2022-08-02T10:37:21;25.70;;;23.40;;
5117;SDS011;2578;51.622;7.046;2022-08-02T10:39:56;24.90;;;22.50;;
5117;SDS011;2578;51.622;7.046;2022-08-02T10:42:55;24.50;;;22.30;;
5117;SDS011;2578;51.622;7.046;2022-08-02T10:45:19;23.63;;;21.63;;
5117;SDS011;2578;51.622;7.046;2022-08-02T10:51:01;23.70;;;21.60;;
5117;SDS011;2578;51.622;7.046;2022-08-02T10:53:29;22.77;;;20.77;;
5117;SDS011;2578;51.622;7.046;2022-08-02T10:56:01;23.30;;;21.20;;
5117;SDS011;2578;51.622;7.046;2022-08-02T10:58:29;24.40;;;22.20;;
5117;SDS011;2578;51.622;7.046;2022-08-02T11:00:57;24.10;;;22.00;;
5117;SDS011;2578;51.622;7.046;2022-08-02T11:03:50;23.80;;;21.70;;
5117;SDS011;2578;51.622;7.046;2022-08-02T11:06:22;24.83;;;22.63;;
5117;SDS011;2578;51.622;7.046;2022-08-02T11:08:47;24.60;;;22.50;;
5117;SDS011;2578;51.622;7.046;2022-08-02T11:11:17;23.90;;;21.70;;
5117;SDS011;2578;51.622;7.046;2022-08-02T11:19:18;26.47;;;24.17;;
5117;SDS011;2578;51.622;7.046;2022-08-02T11:21:58;26.80;;;24.50;;
5117;SDS011;2578;51.622;7.046;2022-08-02T11:24:35;26.67;;;24.27;;
5117;SDS011;2578;51.622;7.046;2022-08-02T11:27:05;26.80;;;24.60;;
5117;SDS011;2578;51.622;7.046;2022-08-02T11:29:41;28.70;;;26.40;;
5117;SDS011;2578;51.622;7.046;2022-08-02T11:34:45;27.87;;;25.30;;
5117;SDS011;2578;51.622;7.046;2022-08-02T11:37:25;27.07;;;24.40;;
5117;SDS011;2578;51.622;7.046;2022-08-02T11:39:52;25.93;;;23.73;;
5117;SDS011;2578;51.622;7.046;2022-08-02T11:42:17;27.60;;;25.30;;
5117;SDS011;2578;51.622;7.046;2022-08-02T11:44:43;28.53;;;26.30;;
5117;SDS011;2578;51.622;7.046;2022-08-02T11:47:10;26.08;;;23.77;;
5117;SDS011;2578;51.622;7.046;2022-08-02T11:49:36;25.60;;;23.30;;
5117;SDS011;2578;51.622;7.046;2022-08-02T11:52:06;25.73;;;23.43;;
5117;SDS011;2578;51.622;7.046;2022-08-02T11:54:35;25.30;;;23.10;;
5117;SDS011;2578;51.622;7.046;2022-08-02T11:57:22;25.00;;;22.90;;
5117;SDS011;2578;51.622;7.046;2022-08-02T11:59:49;26.10;;;23.90;;
5117;SDS011;2578;51.622;7.046;2022-08-02T12:02:16;25.33;;;23.03;;
5117;SDS011;2578;51.622;7.046;2022-08-02T12:04:48;25.40;;;23.10;;
5117;SDS011;2578;51.622;7.046;2022-08-02T12:07:28;24.40;;;22.20;;
5117;SDS011;2578;51.622;7.046;2022-08-02T12:09:58;24.50;;;22.30;;
5117;SDS011;2578;51.622;7.046;2022-08-02T12:12:24;24.87;;;22.57;;
5117;SDS011;2578;51.622;7.046;2022-08-02T12:14:50;25.80;;;23.60;;
5117;SDS011;2578;51.622;7.046;2022-08-02T12:17:21;25.30;;;23.00;;
5117;SDS011;2578;51.622;7.046;2022-08-02T12:20:06;25.33;;;23.03;;
5117;SDS011;2578;51.622;7.046;2022-08-02T12:22:33;26.20;;;23.80;;
5117;SDS011;2578;51.622;7.046;2022-08-02T12:25:13;26.30;;;23.90;;
5117;SDS011;2578;51.622;7.046;2022-08-02T12:27:46;25.80;;;23.40;;
5117;SDS011;2578;51.622;7.046;2022-08-02T12:30:12;25.60;;;23.30;;
5117;SDS011;2578;51.622;7.046;2022-08-02T12:32:42;26.30;;;23.90;;
5117;SDS011;2578;51.622;7.046;2022-08-02T12:37:37;25.00;;;22.70;;
5117;SDS011;2578;51.622;7.046;2022-08-02T12:42:54;27.20;;;24.50;;
5117;SDS011;2578;51.622;7.046;2022-08-02T12:45:25;27.13;;;24.73;;
5117;SDS011;2578;51.622;7.046;2022-08-02T12:47:54;25.80;;;23.40;;
5117;SDS011;2578;51.622;7.046;2022-08-02T12:50:25;26.50;;;24.10;;
5117;SDS011;2578;51.622;7.046;2022-08-02T12:53:02;25.50;;;23.20;;
5117;SDS011;2578;51.622;7.046;2022-08-02T12:55:29;24.90;;;22.60;;
5117;SDS011;2578;51.622;7.046;2022-08-02T12:57:59;25.70;;;23.30;;
5117;SDS011;2578;51.622;7.046;2022-08-02T13:00:31;26.57;;;24.00;;
5117;SDS011;2578;51.622;7.046;2022-08-02T13:03:00;25.73;;;23.33;;
5117;SDS011;2578;51.622;7.046;2022-08-02T13:05:26;25.60;;;23.20;;
5117;SDS011;2578;51.622;7.046;2022-08-02T13:07:53;25.80;;;23.50;;
5117;SDS011;2578;51.622;7.046;2022-08-02T13:10:20;25.80;;;23.50;;
5117;SDS011;2578;51.622;7.046;2022-08-02T13:12:47;26.20;;;23.80;;
5117;SDS011;2578;51.622;7.046;2022-08-02T13:15:13;30.03;;;23.50;;
5117;SDS011;2578;51.622;7.046;2022-08-02T13:17:39;25.33;;;22.93;;
5117;SDS011;2578;51.622;7.046;2022-08-02T13:20:05;25.20;;;22.80;;
5117;SDS011;2578;51.622;7.046;2022-08-02T13:22:31;25.83;;;23.47;;
5117;SDS011;2578;51.622;7.046;2022-08-02T13:24:57;24.77;;;22.47;;
5117;SDS011;2578;51.622;7.046;2022-08-02T13:27:26;24.20;;;21.90;;
5117;SDS011;2578;51.622;7.046;2022-08-02T13:29:52;24.77;;;22.47;;
5117;SDS011;2578;51.622;7.046;2022-08-02T13:32:19;24.57;;;22.27;;
5117;SDS011;2578;51.622;7.046;2022-08-02T13:34:45;24.70;;;22.40;;
5117;SDS011;2578;51.622;7.046;2022-08-02T13:37:11;24.70;;;22.40;;
5117;SDS011;2578;51.622;7.046;2022-08-02T13:39:37;25.30;;;23.00;;
5117;SDS011;2578;51.622;7.046;2022-08-02T13:42:03;25.33;;;23.00;;
5117;SDS011;2578;51.622;7.046;2022-08-02T13:44:28;26.00;;;23.60;;
5117;SDS011;2578;51.622;7.046;2022-08-02T13:46:54;25.93;;;23.63;;
5117;SDS011;2578;51.622;7.046;2022-08-02T13:49:20;26.20;;;23.90;;
5117;SDS011;2578;51.622;7.046;2022-08-02T13:51:46;25.70;;;23.30;;
5117;SDS011;2578;51.622;7.046;2022-08-02T13:54:12;25.97;;;23.67;;
5117;SDS011;2578;51.622;7.046;2022-08-02T13:56:39;26.00;;;23.50;;
5117;SDS011;2578;51.622;7.046;2022-08-02T13:59:05;25.07;;;22.80;;
5117;SDS011;2578;51.622;7.046;2022-08-02T14:01:30;25.87;;;23.57;;
5117;SDS011;2578;51.622;7.046;2022-08-02T14:03:57;25.55;;;23.25;;
5117;SDS011;2578;51.622;7.046;2022-08-02T14:06:23;25.20;;;22.90;;
5117;SDS011;2578;51.622;7.046;2022-08-02T14:08:50;25.80;;;23.50;;
5117;SDS011;2578;51.622;7.046;2022-08-02T14:11:16;26.40;;;24.10;;
5117;SDS011;2578;51.622;7.046;2022-08-02T14:13:42;26.20;;;23.90;;
5117;SDS011;2578;51.622;7.046;2022-08-02T14:16:07;26.65;;;24.35;;
5117;SDS011;2578;51.622;7.046;2022-08-02T14:18:34;26.20;;;23.90;;
5117;SDS011;2578;51.622;7.046;2022-08-02T14:20:59;25.83;;;23.53;;
5117;SDS011;2578;51.622;7.046;2022-08-02T14:23:25;26.47;;;24.07;;
5117;SDS011;2578;51.622;7.046;2022-08-02T14:25:51;27.10;;;24.60;;
5117;SDS011;2578;51.622;7.046;2022-08-02T14:28:16;26.30;;;23.90;;
5117;SDS011;2578;51.622;7.046;2022-08-02T14:30:42;26.70;;;24.30;;
5117;SDS011;2578;51.622;7.046;2022-08-02T14:33:08;26.97;;;24.57;;
5117;SDS011;2578;51.622;7.046;2022-08-02T14:35:34;26.73;;;24.40;;
5117;SDS011;2578;51.622;7.046;2022-08-02T14:37:59;27.70;;;25.30;;
5117;SDS011;2578;51.622;7.046;2022-08-02T14:40:25;27.70;;;25.30;;
5117;SDS011;2578;51.622;7.046;2022-08-02T14:42:51;28.95;;;26.45;;
5117;SDS011;2578;51.622;7.046;2022-08-02T14:45:17;28.77;;;26.37;;
5117;SDS011;2578;51.622;7.046;2022-08-02T14:47:46;28.80;;;26.40;;
5117;SDS011;2578;51.622;7.046;2022-08-02T14:50:13;28.33;;;25.93;;
5117;SDS011;2578;51.622;7.046;2022-08-02T14:52:41;27.40;;;25.00;;
5117;SDS011;2578;51.622;7.046;2022-08-02T14:55:06;26.47;;;24.17;;
5117;SDS011;2578;51.622;7.046;2022-08-02T14:57:32;26.50;;;24.20;;
5117;SDS011;2578;51.622;7.046;2022-08-02T14:59:58;27.00;;;24.60;;
5117;SDS011;2578;51.622;7.046;2022-08-02T15:02:28;26.60;;;24.10;;
5117;SDS011;2578;51.622;7.046;2022-08-02T15:04:53;26.17;;;23.77;;
5117;SDS011;2578;51.622;7.046;2022-08-02T15:07:19;26.80;;;24.33;;
5117;SDS011;2578;51.622;7.046;2022-08-02T15:09:45;28.40;;;25.43;;
5117;SDS011;2578;51.622;7.046;2022-08-02T15:12:11;26.87;;;24.47;;
5117;SDS011;2578;51.622;7.046;2022-08-02T15:14:37;26.57;;;24.17;;
5117;SDS011;2578;51.622;7.046;2022-08-02T15:17:04;25.85;;;23.45;;
5117;SDS011;2578;51.622;7.046;2022-08-02T15:19:31;26.67;;;24.17;;
5117;SDS011;2578;51.622;7.046;2022-08-02T15:21:57;25.90;;;23.50;;
5117;SDS011;2578;51.622;7.046;2022-08-02T15:24:23;26.10;;;23.70;;
5117;SDS011;2578;51.622;7.046;2022-08-02T15:26:49;25.73;;;23.33;;
5117;SDS011;2578;51.622;7.046;2022-08-02T15:29:15;25.55;;;23.25;;
5117;SDS011;2578;51.622;7.046;2022-08-02T15:31:42;25.80;;;23.50;;
5117;SDS011;2578;51.622;7.046;2022-08-02T15:34:07;26.80;;;24.40;;
5117;SDS011;2578;51.622;7.046;2022-08-02T15:36:33;26.53;;;24.13;;
5117;SDS011;2578;51.622;7.046;2022-08-02T15:38:59;26.67;;;24.27;;
5117;SDS011;2578;51.622;7.046;2022-08-02T15:41:24;25.10;;;22.80;;
5117;SDS011;2578;51.622;7.046;2022-08-02T15:43:50;25.33;;;23.03;;
5117;SDS011;2578;51.622;7.046;2022-08-02T15:46:16;25.40;;;23.10;;